createdAt,value
2019-05-01T00:00:43.822Z,15.24
2019-05-01T00:01:43.828Z,15.25
2019-05-01T00:02:43.813Z,15.09
2019-05-01T00:03:43.822Z,15.22
2019-05-01T00:04:43.780Z,15.25
2019-05-01T00:05:43.773Z,15.15
2019-05-01T00:06:43.761Z,15.09
2019-05-01T00:07:43.757Z,15.11
2019-05-01T00:08:43.770Z,15.00
2019-05-01T00:09:43.729Z,15.06
2019-05-01T00:10:43.716Z,14.97
2019-05-01T00:11:43.708Z,14.96
2019-05-01T00:12:43.701Z,14.96
2019-05-01T00:13:43.693Z,14.92
2019-05-01T00:14:43.700Z,14.79
2019-05-01T00:15:43.666Z,14.77
2019-05-01T00:16:43.657Z,14.79
2019-05-01T00:17:43.649Z,14.78
2019-05-01T00:18:43.660Z,14.72
2019-05-01T00:19:43.626Z,14.59
2019-05-01T00:20:43.608Z,14.63
2019-05-01T00:21:43.605Z,14.62
2019-05-01T00:22:43.601Z,14.62
2019-05-01T00:23:43.610Z,14.60
2019-05-01T00:24:43.575Z,14.65
2019-05-01T00:25:43.580Z,14.62
2019-05-01T00:26:43.548Z,14.55
2019-05-01T00:27:43.540Z,14.53
2019-05-01T00:28:43.883Z,14.54
2019-05-01T00:29:43.514Z,14.53
2019-05-01T00:30:43.498Z,14.55
2019-05-01T00:31:43.489Z,14.55
2019-05-01T00:32:43.484Z,14.58
2019-05-01T00:33:43.469Z,14.59
2019-05-01T00:34:43.569Z,14.60
2019-05-01T00:35:43.446Z,14.66
2019-05-01T00:36:43.431Z,14.60
2019-05-01T00:37:43.421Z,14.59
2019-05-01T00:38:43.441Z,14.44
2019-05-01T00:39:43.410Z,14.45
2019-05-01T00:40:43.396Z,14.44
2019-05-01T00:41:43.386Z,14.44
2019-05-01T00:42:43.368Z,14.41
2019-05-01T00:43:43.427Z,14.35
2019-05-01T00:44:43.378Z,14.29
2019-05-01T00:45:43.337Z,14.30
2019-05-01T00:46:43.337Z,14.30
2019-05-01T00:47:43.388Z,14.41
2019-05-01T00:48:43.311Z,14.41
2019-05-01T00:49:43.329Z,14.44
2019-05-01T00:50:43.286Z,14.41
2019-05-01T00:51:43.276Z,14.41
2019-05-01T00:52:43.269Z,14.51
2019-05-01T00:53:43.266Z,14.59
2019-05-01T00:54:43.273Z,14.54
2019-05-01T00:55:43.231Z,14.53
2019-05-01T00:56:43.221Z,14.43
2019-05-01T00:57:43.210Z,14.41
2019-05-01T00:58:43.232Z,14.44
2019-05-01T00:59:43.219Z,14.37
2019-05-01T01:00:43.544Z,14.43
2019-05-01T01:01:43.178Z,14.40
2019-05-01T01:02:43.163Z,14.41
2019-05-01T01:03:43.192Z,14.40
2019-05-01T01:04:43.143Z,14.41
2019-05-01T01:05:43.205Z,14.41
2019-05-01T01:06:43.119Z,14.43
2019-05-01T01:07:43.140Z,14.36
2019-05-01T01:08:43.094Z,14.37
2019-05-01T01:09:43.109Z,14.45
2019-05-01T01:10:43.076Z,14.40
2019-05-01T01:11:43.099Z,14.41
2019-05-01T01:12:43.054Z,14.44
2019-05-01T01:13:43.083Z,14.41
2019-05-01T01:14:43.066Z,14.44
2019-05-01T01:15:43.042Z,14.43
2019-05-01T01:16:43.005Z,14.43
2019-05-01T01:17:43.849Z,14.26
2019-05-01T01:18:42.988Z,14.33
2019-05-01T01:19:42.986Z,14.25
2019-05-01T01:20:42.997Z,14.14
2019-05-01T01:21:42.971Z,14.12
2019-05-01T01:22:42.942Z,14.11
2019-05-01T01:23:42.958Z,14.10
2019-05-01T01:24:42.949Z,14.11
2019-05-01T01:25:42.913Z,14.12
2019-05-01T01:26:42.896Z,14.11
2019-05-01T01:27:42.936Z,14.23
2019-05-01T01:28:42.877Z,14.23
2019-05-01T01:29:42.893Z,14.23
2019-05-01T01:30:55.430Z,14.32
2019-05-01T01:31:43.849Z,14.28
2019-05-01T01:32:42.840Z,14.30
2019-05-01T01:33:42.851Z,14.30
2019-05-01T01:34:42.840Z,14.32
2019-05-01T01:35:42.806Z,14.35
2019-05-01T01:36:42.792Z,14.29
2019-05-01T01:37:42.781Z,14.30
2019-05-01T01:38:42.775Z,14.44
2019-05-01T01:39:42.798Z,14.36
2019-05-01T01:40:42.748Z,14.30
2019-05-01T01:41:42.737Z,14.20
2019-05-01T01:42:42.762Z,14.17
2019-05-01T01:43:42.736Z,14.20
2019-05-01T01:44:42.769Z,14.18
2019-05-01T01:45:42.758Z,14.18
2019-05-01T01:46:42.681Z,14.11
2019-05-01T01:47:42.673Z,14.17
2019-05-01T01:48:42.681Z,14.15
2019-05-01T01:49:42.652Z,14.12
2019-05-01T01:50:42.681Z,14.12
2019-05-01T01:51:42.636Z,14.15
2019-05-01T01:52:42.625Z,14.10
2019-05-01T01:53:42.621Z,14.04
2019-05-01T01:54:42.595Z,14.14
2019-05-01T01:55:42.588Z,14.00
2019-05-01T01:56:42.610Z,14.10
2019-05-01T01:57:42.566Z,14.10
2019-05-01T01:58:42.562Z,14.08
2019-05-01T01:59:42.542Z,14.18
2019-05-01T02:00:42.530Z,14.20
2019-05-01T02:01:42.519Z,14.22
2019-05-01T02:02:42.544Z,14.20
2019-05-01T02:03:42.510Z,14.23
2019-05-01T02:04:42.495Z,14.28
2019-05-01T02:05:42.483Z,14.28
2019-05-01T02:06:42.494Z,14.23
2019-05-01T02:07:42.485Z,14.23
2019-05-01T02:08:42.447Z,14.22
2019-05-01T02:09:42.437Z,14.32
2019-05-01T02:10:43.325Z,14.29
2019-05-01T02:11:42.417Z,14.26
2019-05-01T02:12:42.432Z,14.33
2019-05-01T02:13:42.402Z,14.29
2019-05-01T02:14:42.396Z,14.37
2019-05-01T02:15:42.381Z,14.41
2019-05-01T02:16:42.369Z,14.47
2019-05-01T02:17:42.386Z,14.45
2019-05-01T02:18:42.343Z,14.47
2019-05-01T02:19:42.337Z,14.37
2019-05-01T02:20:42.346Z,14.43
2019-05-01T02:21:42.307Z,14.41
2019-05-01T02:22:42.301Z,14.28
2019-05-01T02:23:42.295Z,14.30
2019-05-01T02:24:42.281Z,14.29
2019-05-01T02:25:42.296Z,14.35
2019-05-01T02:26:42.255Z,14.35
2019-05-01T02:27:42.247Z,14.33
2019-05-01T02:28:42.243Z,14.43
2019-05-01T02:29:42.282Z,14.44
2019-05-01T02:30:42.252Z,14.44
2019-05-01T02:31:42.214Z,14.44
2019-05-01T02:32:42.191Z,14.43
2019-05-01T02:33:42.183Z,14.41
2019-05-01T02:34:42.181Z,14.37
2019-05-01T02:35:42.173Z,14.43
2019-05-01T02:36:42.192Z,14.37
2019-05-01T02:37:42.157Z,14.43
2019-05-01T02:38:42.129Z,14.44
2019-05-01T02:39:42.144Z,14.43
2019-05-01T02:40:42.160Z,14.43
2019-05-01T02:41:42.098Z,14.40
2019-05-01T02:42:42.099Z,14.41
2019-05-01T02:43:42.073Z,14.41
2019-05-01T02:44:42.076Z,14.40
2019-05-01T02:45:42.086Z,14.44
2019-05-01T02:46:42.038Z,14.40
2019-05-01T02:47:42.033Z,14.36
2019-05-01T02:48:42.028Z,14.43
2019-05-01T02:49:42.013Z,14.43
2019-05-01T02:50:42.048Z,14.41
2019-05-01T02:51:42.056Z,14.47
2019-05-01T02:52:42.012Z,14.41
2019-05-01T02:53:41.984Z,14.41
2019-05-01T02:54:42.004Z,14.40
2019-05-01T02:55:41.983Z,14.41
2019-05-01T02:56:41.932Z,14.45
2019-05-01T02:57:41.998Z,14.44
2019-05-01T02:58:41.911Z,14.50
2019-05-01T02:59:41.955Z,14.43
2019-05-01T03:00:41.927Z,14.40
2019-05-01T03:01:47.381Z,14.41
2019-05-01T03:02:42.880Z,14.41
2019-05-01T03:03:41.865Z,14.41
2019-05-01T03:04:41.847Z,14.43
2019-05-01T03:05:41.885Z,14.37
2019-05-01T03:06:41.828Z,14.45
2019-05-01T03:07:41.835Z,14.37
2019-05-01T03:08:41.800Z,14.41
2019-05-01T03:09:41.787Z,14.45
2019-05-01T03:10:41.780Z,14.41
2019-05-01T03:11:41.769Z,14.29
2019-05-01T03:12:41.784Z,14.43
2019-05-01T03:13:41.751Z,14.41
2019-05-01T03:14:41.742Z,14.41
2019-05-01T03:15:41.721Z,14.32
2019-05-01T03:16:41.726Z,14.28
2019-05-01T03:17:41.742Z,14.29
2019-05-01T03:18:41.706Z,14.25
2019-05-01T03:19:41.681Z,14.26
2019-05-01T03:20:41.666Z,14.20
2019-05-01T03:21:41.661Z,14.22
2019-05-01T03:22:41.693Z,14.15
2019-05-01T03:23:41.642Z,14.11
2019-05-01T03:24:41.632Z,14.11
2019-05-01T03:25:41.618Z,14.14
2019-05-01T03:26:41.627Z,14.12
2019-05-01T03:27:41.618Z,14.20
2019-05-01T03:28:41.579Z,14.18
2019-05-01T03:29:41.568Z,14.17
2019-05-01T03:30:41.576Z,14.14
2019-05-01T03:31:41.553Z,14.11
2019-05-01T03:32:41.560Z,14.17
2019-05-01T03:33:41.548Z,14.15
2019-05-01T03:34:41.558Z,14.10
2019-05-01T03:35:41.506Z,14.14
2019-05-01T03:36:41.519Z,14.12
2019-05-01T03:37:41.489Z,14.20
2019-05-01T03:38:41.494Z,14.10
2019-05-01T03:39:41.457Z,14.20
2019-05-01T03:40:41.478Z,14.11
2019-05-01T03:41:41.439Z,14.14
2019-05-01T03:42:41.470Z,14.17
2019-05-01T03:43:41.425Z,14.11
2019-05-01T03:44:41.412Z,14.10
2019-05-01T03:45:41.412Z,14.14
2019-05-01T03:46:41.386Z,14.17
2019-05-01T03:47:41.399Z,14.14
2019-05-01T03:48:41.367Z,14.10
2019-05-01T03:49:41.389Z,14.10
2019-05-01T03:50:41.390Z,14.05
2019-05-01T03:51:41.328Z,14.10
2019-05-01T03:52:41.321Z,14.07
2019-05-01T03:53:41.309Z,14.03
2019-05-01T03:54:41.303Z,14.04
2019-05-01T03:55:41.316Z,14.11
2019-05-01T03:56:41.281Z,14.00
2019-05-01T03:57:41.292Z,14.14
2019-05-01T03:58:41.248Z,14.08
2019-05-01T03:59:41.238Z,14.08
2019-05-01T04:00:41.227Z,14.05
2019-05-01T04:01:41.220Z,14.04
2019-05-01T04:02:41.240Z,14.00
2019-05-01T04:03:41.199Z,14.03
2019-05-01T04:04:41.185Z,14.08
2019-05-01T04:05:41.179Z,13.99
2019-05-01T04:06:41.182Z,13.97
2019-05-01T04:07:41.159Z,13.92
2019-05-01T04:08:41.237Z,13.92
2019-05-01T04:09:41.134Z,13.95
2019-05-01T04:10:41.118Z,13.89
2019-05-01T04:11:41.107Z,13.92
2019-05-01T04:12:41.101Z,13.89
2019-05-01T04:13:41.088Z,13.95
2019-05-01T04:14:41.112Z,13.95
2019-05-01T04:15:41.070Z,13.92
2019-05-01T04:16:41.073Z,13.79
2019-05-01T04:17:41.079Z,13.92
2019-05-01T04:18:41.047Z,13.96
2019-05-01T04:19:41.021Z,13.90
2019-05-01T04:20:41.019Z,13.92
2019-05-01T04:21:41.003Z,13.89
2019-05-01T04:22:41.007Z,13.85
2019-05-01T04:23:41.009Z,13.89
2019-05-01T04:24:40.967Z,13.92
2019-05-01T04:25:40.961Z,13.95
2019-05-01T04:26:40.952Z,13.90
2019-05-01T04:27:40.949Z,13.96
2019-05-01T04:28:40.933Z,13.92
2019-05-01T04:29:40.951Z,13.96
2019-05-01T04:30:40.903Z,13.97
2019-05-01T04:31:40.892Z,13.95
2019-05-01T04:32:52.240Z,13.89
2019-05-01T04:33:41.869Z,13.92
2019-05-01T04:34:40.894Z,13.95
2019-05-01T04:35:40.855Z,13.83
2019-05-01T04:36:40.843Z,13.79
2019-05-01T04:37:40.827Z,13.83
2019-05-01T04:38:40.820Z,13.78
2019-05-01T04:39:40.837Z,13.78
2019-05-01T04:40:40.799Z,13.78
2019-05-01T04:41:40.791Z,13.78
2019-05-01T04:42:40.778Z,13.86
2019-05-01T04:43:40.785Z,13.81
2019-05-01T04:44:40.760Z,13.83
2019-05-01T04:45:40.744Z,13.85
2019-05-01T04:46:40.735Z,13.92
2019-05-01T04:47:40.747Z,13.90
2019-05-01T04:48:40.742Z,13.93
2019-05-01T04:49:40.733Z,13.92
2019-05-01T04:50:40.691Z,13.97
2019-05-01T04:51:40.673Z,13.92
2019-05-01T04:52:40.753Z,13.92
2019-05-01T04:53:40.685Z,13.99
2019-05-01T04:54:40.666Z,13.95
2019-05-01T04:55:40.629Z,13.96
2019-05-01T04:56:40.619Z,13.92
2019-05-01T04:57:40.608Z,13.90
2019-05-01T04:58:40.628Z,13.92
2019-05-01T04:59:40.619Z,13.90
2019-05-01T05:00:40.584Z,13.81
2019-05-01T05:01:40.572Z,13.92
2019-05-01T05:02:40.556Z,13.90
2019-05-01T05:03:40.568Z,13.90
2019-05-01T05:04:40.534Z,13.90
2019-05-01T05:05:40.522Z,13.95
2019-05-01T05:06:40.515Z,13.86
2019-05-01T05:07:40.505Z,13.92
2019-05-01T05:08:40.515Z,13.93
2019-05-01T05:09:40.478Z,13.90
2019-05-01T05:10:40.474Z,13.90
2019-05-01T05:11:40.470Z,13.93
2019-05-01T05:12:40.451Z,13.99
2019-05-01T05:13:40.475Z,14.04
2019-05-01T05:14:40.431Z,14.10
2019-05-01T05:15:40.412Z,14.07
2019-05-01T05:16:40.402Z,14.04
2019-05-01T05:17:40.391Z,14.15
2019-05-01T05:18:40.389Z,14.11
2019-05-01T05:19:40.409Z,14.17
2019-05-01T05:20:40.366Z,14.17
2019-05-01T05:21:40.353Z,14.30
2019-05-01T05:22:40.333Z,14.23
2019-05-01T05:23:40.327Z,14.17
2019-05-01T05:24:40.349Z,14.29
2019-05-01T05:25:40.312Z,14.20
2019-05-01T05:26:40.324Z,14.25
2019-05-01T05:27:40.282Z,14.22
2019-05-01T05:28:40.345Z,14.23
2019-05-01T05:29:40.293Z,14.23
2019-05-01T05:30:40.252Z,14.18
2019-05-01T05:31:40.244Z,14.33
2019-05-01T05:32:40.230Z,14.23
2019-05-01T05:33:40.220Z,14.35
2019-05-01T05:34:40.244Z,14.32
2019-05-01T05:35:40.195Z,14.33
2019-05-01T05:36:40.182Z,14.37
2019-05-01T05:37:40.169Z,14.33
2019-05-01T05:38:40.174Z,14.41
2019-05-01T05:39:40.184Z,14.36
2019-05-01T05:40:40.140Z,14.40
2019-05-01T05:41:40.133Z,14.43
2019-05-01T05:42:40.139Z,14.44
2019-05-01T05:43:40.112Z,14.45
2019-05-01T05:44:40.104Z,14.44
2019-05-01T05:45:40.120Z,14.44
2019-05-01T05:46:40.078Z,14.58
2019-05-01T05:47:40.072Z,14.58
2019-05-01T05:48:40.068Z,14.58
2019-05-01T05:49:40.173Z,14.62
2019-05-01T05:50:40.073Z,14.68
2019-05-01T05:51:40.027Z,14.65
2019-05-01T05:52:40.016Z,14.73
2019-05-01T05:53:40.005Z,14.81
2019-05-01T05:54:39.990Z,14.88
2019-05-01T05:55:40.037Z,15.03
2019-05-01T05:56:39.973Z,15.04
2019-05-01T05:57:39.997Z,15.04
2019-05-01T05:58:39.952Z,15.14
2019-05-01T05:59:39.937Z,15.11
2019-05-01T06:00:39.951Z,15.25
2019-05-01T06:01:39.914Z,15.22
2019-05-01T06:02:39.913Z,15.29
2019-05-01T06:03:39.897Z,15.28
2019-05-01T06:04:39.888Z,15.31
2019-05-01T06:05:39.932Z,15.35
2019-05-01T06:06:39.860Z,15.31
2019-05-01T06:07:39.849Z,15.39
2019-05-01T06:08:39.840Z,15.25
2019-05-01T06:09:39.828Z,15.31
2019-05-01T06:10:39.824Z,15.29
2019-05-01T06:11:39.847Z,15.28
2019-05-01T06:12:41.704Z,15.11
2019-05-01T06:13:40.789Z,15.21
2019-05-01T06:14:39.781Z,15.18
2019-05-01T06:15:41.134Z,15.19
2019-05-01T06:16:40.476Z,15.22
2019-05-01T06:17:39.748Z,15.29
2019-05-01T06:18:40.578Z,15.40
2019-05-01T06:19:39.731Z,15.52
2019-05-01T06:20:39.831Z,15.57
2019-05-01T06:21:39.833Z,15.52
2019-05-01T06:22:40.831Z,15.67
2019-05-01T06:23:40.683Z,15.72
2019-05-01T06:24:40.678Z,15.73
2019-05-01T06:25:39.673Z,15.77
2019-05-01T06:26:39.662Z,15.88
2019-05-01T06:27:39.658Z,15.82
2019-05-01T06:28:39.640Z,15.79
2019-05-01T06:29:39.672Z,15.82
2019-05-01T06:30:42.006Z,15.83
2019-05-01T06:31:40.593Z,15.76
2019-05-01T06:32:40.100Z,15.70
2019-05-01T06:33:44.416Z,15.54
2019-05-01T06:34:40.599Z,15.47
2019-05-01T06:35:39.555Z,15.49
2019-05-01T06:36:39.542Z,15.44
2019-05-01T06:37:39.536Z,15.43
2019-05-01T06:38:39.538Z,15.35
2019-05-01T06:39:42.926Z,15.35
2019-05-01T06:40:40.491Z,15.22
2019-05-01T06:41:42.667Z,15.28
2019-05-01T06:42:39.479Z,15.27
2019-05-01T06:43:39.489Z,15.11
2019-05-01T06:44:44.074Z,15.21
2019-05-01T06:45:40.445Z,15.25
2019-05-01T06:46:39.437Z,15.25
2019-05-01T06:47:43.041Z,15.35
2019-05-01T06:48:39.449Z,15.25
2019-05-01T06:49:39.403Z,15.36
2019-05-01T06:50:41.493Z,15.27
2019-05-01T06:51:39.450Z,15.27
2019-05-01T06:52:39.373Z,15.28
2019-05-01T06:53:39.881Z,15.25
2019-05-01T06:54:39.349Z,15.25
2019-05-01T06:55:39.341Z,15.28
2019-05-01T06:56:39.355Z,15.25
2019-05-01T06:57:43.841Z,15.17
2019-05-01T06:58:40.335Z,15.25
2019-05-01T06:59:39.293Z,15.09
2019-05-01T07:00:43.129Z,15.10
2019-05-01T07:01:39.665Z,15.03
2019-05-01T07:02:39.296Z,14.86
2019-05-01T07:03:40.861Z,14.79
2019-05-01T07:04:40.264Z,14.70
2019-05-01T07:05:39.230Z,14.73
2019-05-01T07:06:39.220Z,14.62
2019-05-01T07:07:39.243Z,14.45
2019-05-01T07:08:39.683Z,14.26
2019-05-01T07:09:39.224Z,14.22
2019-05-01T07:10:44.048Z,14.23
2019-05-01T07:11:42.351Z,14.15
2019-05-01T07:12:39.153Z,14.22
2019-05-01T07:13:40.061Z,14.20
2019-05-01T07:14:39.169Z,14.20
2019-05-01T07:15:39.152Z,14.29
2019-05-01T07:16:39.357Z,14.30
2019-05-01T07:17:39.096Z,14.36
2019-05-01T07:18:39.100Z,14.29
2019-05-01T07:19:40.296Z,14.41
2019-05-01T07:20:39.068Z,14.41
2019-05-01T07:21:39.073Z,14.53
2019-05-01T07:22:42.179Z,14.60
2019-05-01T07:23:39.035Z,14.54
2019-05-01T07:24:39.028Z,14.68
2019-05-01T07:25:40.547Z,14.68
2019-05-01T07:26:39.008Z,14.85
2019-05-01T07:27:39.003Z,14.77
2019-05-01T07:28:39.021Z,14.79
2019-05-01T07:29:39.838Z,14.85
2019-05-01T07:30:41.460Z,14.81
2019-05-01T07:31:38.946Z,14.85
2019-05-01T07:32:41.182Z,14.84
2019-05-01T07:33:38.943Z,14.89
2019-05-01T07:34:38.951Z,14.94
2019-05-01T07:35:38.906Z,14.92
2019-05-01T07:36:38.905Z,15.02
2019-05-01T07:37:38.881Z,15.09
2019-05-01T07:38:40.480Z,15.02
2019-05-01T07:39:38.871Z,15.04
2019-05-01T07:40:38.893Z,15.09
2019-05-01T07:41:39.044Z,15.27
2019-05-01T07:42:38.828Z,15.14
2019-05-01T07:43:38.818Z,15.29
2019-05-01T07:44:38.841Z,15.42
2019-05-01T07:45:43.123Z,15.73
2019-05-01T07:46:38.794Z,15.94
2019-05-01T07:47:38.780Z,15.88
2019-05-01T07:48:41.521Z,16.01
2019-05-01T07:49:38.786Z,15.97
2019-05-01T07:50:38.781Z,15.95
2019-05-01T07:51:42.404Z,16.13
2019-05-01T07:52:38.745Z,16.47
2019-05-01T07:53:38.744Z,17.11
2019-05-01T07:54:42.462Z,17.11
2019-05-01T07:55:38.738Z,17.08
2019-05-01T07:56:38.683Z,16.93
2019-05-01T07:57:39.623Z,16.97
2019-05-01T07:58:38.670Z,16.96
2019-05-01T07:59:38.653Z,16.97
2019-05-01T08:00:41.604Z,16.97
2019-05-01T08:01:38.652Z,16.99
2019-05-01T08:02:38.616Z,16.96
2019-05-01T08:03:42.683Z,16.94
2019-05-01T08:04:39.626Z,16.84
2019-05-01T08:05:40.906Z,16.94
2019-05-01T08:06:39.570Z,16.97
2019-05-01T08:07:38.559Z,17.23
2019-05-01T08:08:39.779Z,17.02
2019-05-01T08:09:38.572Z,18.19
2019-05-01T08:10:38.660Z,19.08
2019-05-01T08:11:39.105Z,19.39
2019-05-01T08:12:39.516Z,19.52
2019-05-01T08:13:38.506Z,20.78
2019-05-01T08:14:38.506Z,20.50
2019-05-01T08:15:38.516Z,20.25
2019-05-01T08:16:42.573Z,19.94
2019-05-01T08:17:39.529Z,19.74
2019-05-01T08:18:38.472Z,19.29
2019-05-01T08:19:39.408Z,18.77
2019-05-01T08:20:38.457Z,18.68
2019-05-01T08:21:38.415Z,18.33
2019-05-01T08:22:39.100Z,18.04
2019-05-01T08:23:38.482Z,17.92
2019-05-01T08:24:38.384Z,18.25
2019-05-01T08:25:38.373Z,19.45
2019-05-01T08:26:39.573Z,19.37
2019-05-01T08:27:39.353Z,19.12
2019-05-01T08:28:38.347Z,18.88
2019-05-01T08:29:42.031Z,19.08
2019-05-01T08:30:39.321Z,20.63
2019-05-01T08:31:38.343Z,22.32
2019-05-01T08:32:40.782Z,23.54
2019-05-01T08:33:38.292Z,24.42
2019-05-01T08:34:49.040Z,25.51
2019-05-01T08:35:38.272Z,25.40
2019-05-01T08:36:38.332Z,26.05
2019-05-01T08:37:38.295Z,26.28
2019-05-01T08:38:38.226Z,25.85
2019-05-01T08:39:39.631Z,27.20
2019-05-01T08:40:39.309Z,27.37
2019-05-01T08:41:38.241Z,26.74
2019-05-01T08:42:42.697Z,25.80
2019-05-01T08:43:39.178Z,25.08
2019-05-01T08:44:38.233Z,24.17
2019-05-01T08:45:40.780Z,23.71
2019-05-01T08:46:38.420Z,23.55
2019-05-01T08:47:38.217Z,22.57
2019-05-01T08:48:38.144Z,22.44
2019-05-01T08:49:41.749Z,23.47
2019-05-01T08:50:39.126Z,24.76
2019-05-01T08:51:38.131Z,25.88
2019-05-01T08:52:38.085Z,27.35
2019-05-01T08:53:38.106Z,27.86
2019-05-01T08:54:38.067Z,28.82
2019-05-01T08:55:39.787Z,29.93
2019-05-01T08:56:39.094Z,30.59
2019-05-01T08:57:39.508Z,30.70
2019-05-01T08:58:38.139Z,30.08
2019-05-01T08:59:38.037Z,30.54
2019-05-01T09:00:41.164Z,31.64
2019-05-01T09:01:38.051Z,32.00
2019-05-01T09:02:41.803Z,32.01
2019-05-01T09:03:39.089Z,31.73
2019-05-01T09:04:38.063Z,31.25
2019-05-01T09:05:38.013Z,30.90
2019-05-01T09:06:39.341Z,31.54
2019-05-01T09:07:39.032Z,31.96
2019-05-01T09:08:38.014Z,32.43
2019-05-01T09:09:39.907Z,32.67
2019-05-01T09:10:38.942Z,33.14
2019-05-01T09:11:38.151Z,33.68
2019-05-01T09:12:37.956Z,34.20
2019-05-01T09:13:37.925Z,34.66
2019-05-01T09:14:37.917Z,34.83
2019-05-01T09:15:37.976Z,34.85
2019-05-01T09:16:37.899Z,35.04
2019-05-01T09:17:37.891Z,35.15
2019-05-01T09:18:37.861Z,34.33
2019-05-01T09:19:37.860Z,34.81
2019-05-01T09:20:37.856Z,34.64
2019-05-01T09:21:39.415Z,34.85
2019-05-01T09:22:37.847Z,35.00
2019-05-01T09:23:37.893Z,34.80
2019-05-01T09:24:37.834Z,35.02
2019-05-01T09:25:37.828Z,35.00
2019-05-01T09:26:37.827Z,35.39
2019-05-01T09:27:37.854Z,35.14
2019-05-01T09:28:39.822Z,33.62
2019-05-01T09:29:37.850Z,32.15
2019-05-01T09:30:37.818Z,30.69
2019-05-01T09:31:37.904Z,29.05
2019-05-01T09:32:37.899Z,27.63
2019-05-01T09:33:37.714Z,26.06
2019-05-01T09:34:37.791Z,25.26
2019-05-01T09:35:40.150Z,25.69
2019-05-01T09:36:38.652Z,26.93
2019-05-01T09:37:37.644Z,27.71
2019-05-01T09:44:39.937Z,30.91
2019-05-01T09:45:39.900Z,31.05
2019-05-01T09:46:39.898Z,31.54
2019-05-01T09:47:39.886Z,32.34
2019-05-01T09:48:39.871Z,33.00
2019-05-01T09:49:39.884Z,32.01
2019-05-01T09:50:39.856Z,32.74
2019-05-01T09:51:42.495Z,33.20
2019-05-01T09:52:40.866Z,33.76
2019-05-01T09:53:41.243Z,33.61
2019-05-01T09:54:42.885Z,33.40
2019-05-01T09:55:40.800Z,32.78
2019-05-01T09:56:39.793Z,32.36
2019-05-01T09:57:41.408Z,32.70
2019-05-01T09:58:39.782Z,32.67
2019-05-01T09:59:39.796Z,33.53
2019-05-01T10:00:39.761Z,34.39
2019-05-01T10:01:39.758Z,34.85
2019-05-01T10:02:42.264Z,35.37
2019-05-01T10:03:39.760Z,35.76
2019-05-01T10:04:39.726Z,35.86
2019-05-01T10:05:42.848Z,36.18
2019-05-01T10:06:39.703Z,36.17
2019-05-01T10:07:39.693Z,36.21
2019-05-01T10:08:40.383Z,36.24
2019-05-01T10:09:39.701Z,36.33
2019-05-01T10:10:39.671Z,35.12
2019-05-01T10:11:40.714Z,34.81
2019-05-01T10:12:41.847Z,34.80
2019-05-01T10:13:40.643Z,35.00
2019-05-01T10:14:39.709Z,33.86
2019-05-01T10:15:39.630Z,33.42
2019-05-01T10:16:39.641Z,32.59
2019-05-01T10:17:39.634Z,32.23
2019-05-01T10:18:39.599Z,32.23
2019-05-01T10:19:39.588Z,31.87
2019-05-01T10:20:39.598Z,31.00
2019-05-01T10:21:39.565Z,30.32
2019-05-01T10:22:39.569Z,28.98
2019-05-01T10:23:39.566Z,27.77
2019-05-01T10:24:39.542Z,26.88
2019-05-01T10:25:42.867Z,26.48
2019-05-01T10:26:40.518Z,26.25
2019-05-01T10:27:39.511Z,25.81
2019-05-01T10:28:39.528Z,25.62
2019-05-01T10:29:39.489Z,25.32
2019-05-01T10:30:39.484Z,24.70
2019-05-01T10:31:42.845Z,24.05
2019-05-01T10:32:40.468Z,23.13
2019-05-01T10:33:39.457Z,22.66
2019-05-01T10:34:43.013Z,22.59
2019-05-01T10:35:42.860Z,22.68
2019-05-01T10:36:39.425Z,22.83
2019-05-01T10:37:39.419Z,22.93
2019-05-01T10:38:39.995Z,22.83
2019-05-01T10:39:40.417Z,22.65
2019-05-01T10:40:39.381Z,22.65
2019-05-01T10:41:41.305Z,22.68
2019-05-01T10:42:41.064Z,22.51
2019-05-01T10:43:39.355Z,22.48
2019-05-01T10:44:39.363Z,22.70
2019-05-01T10:45:39.332Z,22.68
2019-05-01T10:46:39.319Z,22.69
2019-05-01T10:47:39.337Z,22.85
2019-05-01T10:48:39.292Z,22.93
2019-05-01T10:49:39.287Z,23.23
2019-05-01T10:50:39.282Z,22.93
2019-05-01T10:51:39.270Z,22.47
2019-05-01T10:52:39.282Z,22.18
2019-05-01T10:53:39.243Z,22.10
2019-05-01T10:54:39.239Z,22.23
2019-05-01T10:55:39.227Z,22.15
2019-05-01T10:56:39.240Z,22.11
2019-05-01T10:57:40.202Z,22.06
2019-05-01T10:58:39.213Z,21.77
2019-05-01T10:59:39.177Z,21.48
2019-05-01T11:00:39.167Z,21.60
2019-05-01T11:01:39.185Z,21.61
2019-05-01T11:02:39.151Z,21.43
2019-05-01T11:03:39.141Z,21.50
2019-05-01T11:04:39.129Z,21.52
2019-05-01T11:05:39.146Z,21.69
2019-05-01T11:06:39.131Z,21.62
2019-05-01T11:07:39.098Z,21.48
2019-05-01T11:08:39.088Z,21.72
2019-05-01T11:09:39.076Z,21.72
2019-05-01T11:10:39.083Z,21.85
2019-05-01T11:11:39.048Z,21.99
2019-05-01T11:12:39.040Z,21.88
2019-05-01T11:13:39.028Z,21.66
2019-05-01T11:14:39.024Z,21.50
2019-05-01T11:15:39.038Z,21.70
2019-05-01T11:16:39.005Z,21.75
2019-05-01T11:17:38.991Z,21.61
2019-05-01T11:18:38.975Z,21.69
2019-05-01T11:19:38.965Z,21.77
2019-05-01T11:20:38.981Z,22.02
2019-05-01T11:21:38.945Z,22.20
2019-05-01T11:22:38.963Z,22.28
2019-05-01T11:23:38.927Z,22.33
2019-05-01T11:24:38.911Z,22.55
2019-05-01T11:25:38.924Z,22.75
2019-05-01T11:26:38.896Z,22.76
2019-05-01T11:27:38.908Z,22.87
2019-05-01T11:28:38.873Z,22.88
2019-05-01T11:29:38.861Z,22.90
2019-05-01T11:30:38.918Z,22.85
2019-05-01T11:31:38.900Z,22.48
2019-05-01T11:32:38.845Z,21.88
2019-05-01T11:33:38.815Z,21.45
2019-05-01T11:34:38.809Z,21.27
2019-05-01T11:35:38.796Z,21.37
2019-05-01T11:36:38.791Z,21.36
2019-05-01T11:37:38.796Z,21.43
2019-05-01T11:38:38.771Z,21.60
2019-05-01T11:39:40.873Z,21.73
2019-05-01T11:40:38.816Z,21.72
2019-05-01T11:41:38.729Z,21.92
2019-05-01T11:42:38.749Z,22.02
2019-05-01T11:43:38.707Z,21.98
2019-05-01T11:44:38.694Z,21.99
2019-05-01T11:45:38.682Z,22.13
2019-05-01T11:46:38.678Z,22.20
2019-05-01T11:47:38.715Z,22.15
2019-05-01T11:48:38.658Z,22.26
2019-05-01T11:49:38.646Z,22.23
2019-05-01T11:50:38.631Z,22.20
2019-05-01T11:51:38.620Z,22.36
2019-05-01T11:52:38.614Z,22.26
2019-05-01T11:53:38.624Z,22.23
2019-05-01T11:54:38.593Z,22.10
2019-05-01T11:55:38.582Z,22.11
2019-05-01T11:56:38.569Z,22.13
2019-05-01T11:57:38.557Z,22.07
2019-05-01T11:58:38.608Z,22.07
2019-05-01T11:59:38.539Z,21.75
2019-05-01T12:00:38.531Z,21.72
2019-05-01T12:01:38.522Z,21.48
2019-05-01T12:02:38.534Z,21.30
2019-05-01T12:03:38.494Z,21.22
2019-05-01T12:04:38.480Z,20.99
2019-05-01T12:05:38.469Z,20.93
2019-05-01T12:06:38.466Z,20.95
2019-05-01T12:07:38.497Z,21.17
2019-05-01T12:08:38.447Z,21.12
2019-05-01T12:09:38.430Z,21.30
2019-05-01T12:10:38.415Z,21.37
2019-05-01T12:11:38.406Z,21.45
2019-05-01T12:12:38.396Z,21.40
2019-05-01T12:13:44.045Z,21.50
2019-05-01T12:14:39.373Z,21.50
2019-05-01T12:15:38.361Z,21.60
2019-05-01T12:16:38.348Z,21.70
2019-05-01T12:17:39.024Z,21.75
2019-05-01T12:18:38.369Z,21.76
2019-05-01T12:19:38.367Z,21.77
2019-05-01T12:20:39.870Z,21.73
2019-05-01T12:21:38.311Z,21.54
2019-05-01T12:22:38.283Z,21.17
2019-05-01T12:23:38.318Z,20.70
2019-05-01T12:24:38.311Z,20.25
2019-05-01T12:25:38.257Z,20.03
2019-05-01T12:26:38.249Z,20.02
2019-05-01T12:27:38.238Z,20.25
2019-05-01T12:28:38.239Z,20.43
2019-05-01T12:29:38.210Z,20.55
2019-05-01T12:30:38.203Z,20.77
2019-05-01T12:31:38.191Z,20.92
2019-05-01T12:32:38.184Z,20.81
2019-05-01T12:33:38.202Z,20.80
2019-05-01T12:34:38.155Z,20.80
2019-05-01T12:35:38.141Z,20.84
2019-05-01T12:36:38.130Z,20.74
2019-05-01T12:37:38.118Z,20.78
2019-05-01T12:38:38.126Z,20.81
2019-05-01T12:39:38.134Z,20.93
2019-05-01T12:40:38.142Z,20.82
2019-05-01T12:41:38.085Z,20.88
2019-05-01T12:42:38.065Z,20.92
2019-05-01T12:43:38.055Z,20.97
2019-05-01T12:44:38.049Z,21.09
2019-05-01T12:45:38.063Z,21.05
2019-05-01T12:46:38.057Z,21.00
2019-05-01T12:47:38.271Z,20.92
2019-05-01T12:48:38.024Z,20.51
2019-05-01T12:49:37.988Z,20.51
2019-05-01T12:50:37.985Z,20.41
2019-05-01T12:51:37.974Z,20.24
2019-05-01T12:52:37.963Z,20.21
2019-05-01T12:53:37.974Z,20.07
2019-05-01T12:54:37.940Z,20.04
2019-05-01T12:55:37.925Z,20.21
2019-05-01T12:56:37.915Z,20.26
2019-05-01T12:57:37.904Z,20.32
2019-05-01T12:58:37.925Z,20.59